sensor_id;sensor_type;location;lat;lon;timestamp;temperature;humidity
54264;DHT22;40178;53.042;6.406;2023-09-08T00:02:02;18.20;84.20
54264;DHT22;40178;53.042;6.406;2023-09-08T00:04:28;18.10;85.40
54264;DHT22;40178;53.042;6.406;2023-09-08T00:06:54;18.10;85.60
54264;DHT22;40178;53.042;6.406;2023-09-08T00:09:19;17.90;85.80
54264;DHT22;40178;53.042;6.406;2023-09-08T00:11:45;17.90;88.00
54264;DHT22;40178;53.042;6.406;2023-09-08T00:14:10;17.80;89.80
54264;DHT22;40178;53.042;6.406;2023-09-08T00:16:36;17.90;90.00
54264;DHT22;40178;53.042;6.406;2023-09-08T00:19:04;17.80;90.20
54264;DHT22;40178;53.042;6.406;2023-09-08T00:21:30;17.90;90.30
54264;DHT22;40178;53.042;6.406;2023-09-08T00:23:55;17.90;90.90
54264;DHT22;40178;53.042;6.406;2023-09-08T00:26:22;17.80;90.90
54264;DHT22;40178;53.042;6.406;2023-09-08T00:28:48;17.80;91.00
54264;DHT22;40178;53.042;6.406;2023-09-08T00:31:13;17.80;91.30
54264;DHT22;40178;53.042;6.406;2023-09-08T00:33:39;17.70;91.60
54264;DHT22;40178;53.042;6.406;2023-09-08T00:36:06;17.70;92.00
54264;DHT22;40178;53.042;6.406;2023-09-08T00:38:32;17.70;91.80
54264;DHT22;40178;53.042;6.406;2023-09-08T00:40:57;17.60;91.90
54264;DHT22;40178;53.042;6.406;2023-09-08T00:43:24;17.50;92.40
54264;DHT22;40178;53.042;6.406;2023-09-08T00:45:50;17.60;92.60
54264;DHT22;40178;53.042;6.406;2023-09-08T00:48:15;17.60;93.10
54264;DHT22;40178;53.042;6.406;2023-09-08T00:50:41;17.60;93.40
54264;DHT22;40178;53.042;6.406;2023-09-08T00:53:07;17.60;93.70
54264;DHT22;40178;53.042;6.406;2023-09-08T00:55:34;17.50;93.80
54264;DHT22;40178;53.042;6.406;2023-09-08T00:58:00;17.40;94.30
54264;DHT22;40178;53.042;6.406;2023-09-08T01:00:26;17.30;95.20
54264;DHT22;40178;53.042;6.406;2023-09-08T01:02:52;17.30;94.40
54264;DHT22;40178;53.042;6.406;2023-09-08T01:05:18;17.20;94.80
54264;DHT22;40178;53.042;6.406;2023-09-08T01:07:45;17.20;95.30
54264;DHT22;40178;53.042;6.406;2023-09-08T01:10:12;17.20;95.20
54264;DHT22;40178;53.042;6.406;2023-09-08T01:12:39;17.20;98.10
54264;DHT22;40178;53.042;6.406;2023-09-08T01:15:05;17.20;96.80
54264;DHT22;40178;53.042;6.406;2023-09-08T01:17:31;17.10;97.20
54264;DHT22;40178;53.042;6.406;2023-09-08T01:20:04;17.10;98.00
54264;DHT22;40178;53.042;6.406;2023-09-08T01:25:22;17.00;98.30
54264;DHT22;40178;53.042;6.406;2023-09-08T01:27:53;17.00;98.80
54264;DHT22;40178;53.042;6.406;2023-09-08T01:30:20;16.90;97.80
54264;DHT22;40178;53.042;6.406;2023-09-08T01:32:46;17.00;98.60
54264;DHT22;40178;53.042;6.406;2023-09-08T01:35:13;17.00;98.90
54264;DHT22;40178;53.042;6.406;2023-09-08T01:37:46;17.00;99.90
54264;DHT22;40178;53.042;6.406;2023-09-08T01:40:12;16.90;99.50
54264;DHT22;40178;53.042;6.406;2023-09-08T01:42:38;17.00;99.00
54264;DHT22;40178;53.042;6.406;2023-09-08T01:45:04;17.00;99.90
54264;DHT22;40178;53.042;6.406;2023-09-08T01:47:30;16.90;99.70
54264;DHT22;40178;53.042;6.406;2023-09-08T01:49:56;16.90;99.60
54264;DHT22;40178;53.042;6.406;2023-09-08T01:52:22;16.80;99.80
54264;DHT22;40178;53.042;6.406;2023-09-08T01:54:47;16.80;99.90
54264;DHT22;40178;53.042;6.406;2023-09-08T01:57:13;16.80;99.90
54264;DHT22;40178;53.042;6.406;2023-09-08T01:59:39;16.80;99.80
54264;DHT22;40178;53.042;6.406;2023-09-08T02:02:05;16.80;99.70
54264;DHT22;40178;53.042;6.406;2023-09-08T02:04:31;16.70;99.90
54264;DHT22;40178;53.042;6.406;2023-09-08T02:06:57;16.70;99.90
54264;DHT22;40178;53.042;6.406;2023-09-08T02:09:31;16.70;99.90
54264;DHT22;40178;53.042;6.406;2023-09-08T02:11:56;16.60;99.90
54264;DHT22;40178;53.042;6.406;2023-09-08T02:14:22;16.60;99.90
54264;DHT22;40178;53.042;6.406;2023-09-08T02:16:48;16.60;99.90
54264;DHT22;40178;53.042;6.406;2023-09-08T02:19:13;16.60;99.90
54264;DHT22;40178;53.042;6.406;2023-09-08T02:21:39;16.60;99.90
54264;DHT22;40178;53.042;6.406;2023-09-08T02:24:05;16.50;99.90
54264;DHT22;40178;53.042;6.406;2023-09-08T02:26:30;16.40;99.90
54264;DHT22;40178;53.042;6.406;2023-09-08T02:28:58;16.30;99.90
54264;DHT22;40178;53.042;6.406;2023-09-08T02:31:24;16.40;99.90
54264;DHT22;40178;53.042;6.406;2023-09-08T02:33:49;16.40;99.90
54264;DHT22;40178;53.042;6.406;2023-09-08T02:36:15;16.40;99.90
54264;DHT22;40178;53.042;6.406;2023-09-08T02:38:40;16.30;99.90
54264;DHT22;40178;53.042;6.406;2023-09-08T02:41:06;16.40;99.90
54264;DHT22;40178;53.042;6.406;2023-09-08T02:43:32;16.40;99.90
54264;DHT22;40178;53.042;6.406;2023-09-08T02:45:57;16.30;99.90
54264;DHT22;40178;53.042;6.406;2023-09-08T02:48:24;16.30;99.90
54264;DHT22;40178;53.042;6.406;2023-09-08T02:50:49;16.30;99.90
54264;DHT22;40178;53.042;6.406;2023-09-08T02:53:15;16.30;99.90
54264;DHT22;40178;53.042;6.406;2023-09-08T02:55:41;16.30;99.90
54264;DHT22;40178;53.042;6.406;2023-09-08T02:58:06;16.30;99.90
54264;DHT22;40178;53.042;6.406;2023-09-08T03:00:32;16.30;99.90
54264;DHT22;40178;53.042;6.406;2023-09-08T03:02:57;16.20;99.90
54264;DHT22;40178;53.042;6.406;2023-09-08T03:05:23;16.20;99.90
54264;DHT22;40178;53.042;6.406;2023-09-08T03:07:49;16.10;99.90
54264;DHT22;40178;53.042;6.406;2023-09-08T03:10:14;16.20;99.90
54264;DHT22;40178;53.042;6.406;2023-09-08T03:12:41;16.10;99.90
54264;DHT22;40178;53.042;6.406;2023-09-08T03:15:07;16.20;99.90
54264;DHT22;40178;53.042;6.406;2023-09-08T03:17:33;16.10;99.90
54264;DHT22;40178;53.042;6.406;2023-09-08T03:19:58;16.00;99.90
54264;DHT22;40178;53.042;6.406;2023-09-08T03:22:24;16.00;99.90
54264;DHT22;40178;53.042;6.406;2023-09-08T03:24:50;16.00;99.90
54264;DHT22;40178;53.042;6.406;2023-09-08T03:27:16;16.00;99.90
54264;DHT22;40178;53.042;6.406;2023-09-08T03:29:41;15.90;99.90
54264;DHT22;40178;53.042;6.406;2023-09-08T03:32:07;16.00;99.90
54264;DHT22;40178;53.042;6.406;2023-09-08T03:34:33;15.80;99.90
54264;DHT22;40178;53.042;6.406;2023-09-08T03:36:59;15.90;99.90
54264;DHT22;40178;53.042;6.406;2023-09-08T03:39:24;15.80;99.90
54264;DHT22;40178;53.042;6.406;2023-09-08T03:41:50;15.80;99.90
54264;DHT22;40178;53.042;6.406;2023-09-08T03:44:16;15.80;99.90
54264;DHT22;40178;53.042;6.406;2023-09-08T03:46:41;15.80;99.90
54264;DHT22;40178;53.042;6.406;2023-09-08T03:49:07;15.80;99.90
54264;DHT22;40178;53.042;6.406;2023-09-08T03:51:33;15.70;99.90
54264;DHT22;40178;53.042;6.406;2023-09-08T03:53:59;15.80;99.90
54264;DHT22;40178;53.042;6.406;2023-09-08T03:56:24;15.70;99.90
54264;DHT22;40178;53.042;6.406;2023-09-08T03:58:50;15.70;99.90
54264;DHT22;40178;53.042;6.406;2023-09-08T04:01:15;15.70;99.90
54264;DHT22;40178;53.042;6.406;2023-09-08T04:03:41;15.70;99.90
54264;DHT22;40178;53.042;6.406;2023-09-08T04:06:07;15.60;99.90
54264;DHT22;40178;53.042;6.406;2023-09-08T04:08:34;15.60;99.90
54264;DHT22;40178;53.042;6.406;2023-09-08T04:11:00;15.60;99.90
54264;DHT22;40178;53.042;6.406;2023-09-08T04:13:25;15.60;99.90
54264;DHT22;40178;53.042;6.406;2023-09-08T04:15:51;15.50;99.90
54264;DHT22;40178;53.042;6.406;2023-09-08T04:18:16;15.50;99.90
54264;DHT22;40178;53.042;6.406;2023-09-08T04:20:43;15.50;99.90
54264;DHT22;40178;53.042;6.406;2023-09-08T04:23:08;15.40;99.90
54264;DHT22;40178;53.042;6.406;2023-09-08T04:25:34;15.40;99.90
54264;DHT22;40178;53.042;6.406;2023-09-08T04:28:02;15.40;99.90
54264;DHT22;40178;53.042;6.406;2023-09-08T04:30:27;15.40;99.90
54264;DHT22;40178;53.042;6.406;2023-09-08T04:32:53;15.40;99.90
54264;DHT22;40178;53.042;6.406;2023-09-08T04:35:18;15.40;99.90
54264;DHT22;40178;53.042;6.406;2023-09-08T04:37:44;15.40;99.90
54264;DHT22;40178;53.042;6.406;2023-09-08T04:40:10;15.60;99.90
54264;DHT22;40178;53.042;6.406;2023-09-08T04:42:35;15.50;99.90
54264;DHT22;40178;53.042;6.406;2023-09-08T04:45:01;15.50;99.90
54264;DHT22;40178;53.042;6.406;2023-09-08T04:47:27;15.50;99.90
54264;DHT22;40178;53.042;6.406;2023-09-08T04:49:52;15.40;99.90
54264;DHT22;40178;53.042;6.406;2023-09-08T04:52:18;15.50;99.90
54264;DHT22;40178;53.042;6.406;2023-09-08T04:54:44;15.50;99.90
54264;DHT22;40178;53.042;6.406;2023-09-08T04:57:09;15.50;99.90
54264;DHT22;40178;53.042;6.406;2023-09-08T04:59:35;15.60;99.90
54264;DHT22;40178;53.042;6.406;2023-09-08T05:02:02;15.60;99.90
54264;DHT22;40178;53.042;6.406;2023-09-08T05:04:28;15.80;99.90
54264;DHT22;40178;53.042;6.406;2023-09-08T05:06:53;15.90;99.90
54264;DHT22;40178;53.042;6.406;2023-09-08T05:09:19;15.80;99.90
54264;DHT22;40178;53.042;6.406;2023-09-08T05:11:45;15.90;99.90
54264;DHT22;40178;53.042;6.406;2023-09-08T05:14:10;16.00;99.90
54264;DHT22;40178;53.042;6.406;2023-09-08T05:16:36;16.10;99.90
54264;DHT22;40178;53.042;6.406;2023-09-08T05:19:06;16.10;99.90
54264;DHT22;40178;53.042;6.406;2023-09-08T05:21:33;16.20;99.90
54264;DHT22;40178;53.042;6.406;2023-09-08T05:23:59;16.20;99.90
54264;DHT22;40178;53.042;6.406;2023-09-08T05:26:24;16.10;99.90
54264;DHT22;40178;53.042;6.406;2023-09-08T05:28:50;16.30;99.90
54264;DHT22;40178;53.042;6.406;2023-09-08T05:31:16;16.30;99.90
54264;DHT22;40178;53.042;6.406;2023-09-08T05:33:41;16.20;99.90
54264;DHT22;40178;53.042;6.406;2023-09-08T05:36:07;16.20;99.90
54264;DHT22;40178;53.042;6.406;2023-09-08T05:38:32;16.20;99.90
54264;DHT22;40178;53.042;6.406;2023-09-08T05:40:58;16.30;99.90
54264;DHT22;40178;53.042;6.406;2023-09-08T05:43:25;16.30;99.90
54264;DHT22;40178;53.042;6.406;2023-09-08T05:45:51;16.30;99.90
54264;DHT22;40178;53.042;6.406;2023-09-08T05:48:16;16.30;99.90
54264;DHT22;40178;53.042;6.406;2023-09-08T05:50:42;16.30;99.90
54264;DHT22;40178;53.042;6.406;2023-09-08T05:53:08;16.30;99.90
54264;DHT22;40178;53.042;6.406;2023-09-08T05:55:33;16.30;99.90
54264;DHT22;40178;53.042;6.406;2023-09-08T05:57:59;16.20;99.90
54264;DHT22;40178;53.042;6.406;2023-09-08T06:00:25;16.30;99.90
54264;DHT22;40178;53.042;6.406;2023-09-08T06:02:50;16.30;99.90
54264;DHT22;40178;53.042;6.406;2023-09-08T06:05:16;16.30;99.90
54264;DHT22;40178;53.042;6.406;2023-09-08T06:07:42;16.30;99.90
54264;DHT22;40178;53.042;6.406;2023-09-08T06:10:08;16.40;99.90
54264;DHT22;40178;53.042;6.406;2023-09-08T06:12:33;16.40;99.90
54264;DHT22;40178;53.042;6.406;2023-09-08T06:14:59;16.40;99.90
54264;DHT22;40178;53.042;6.406;2023-09-08T06:17:25;16.50;99.90
54264;DHT22;40178;53.042;6.406;2023-09-08T06:19:50;16.60;99.90
54264;DHT22;40178;53.042;6.406;2023-09-08T06:22:16;16.60;99.90
54264;DHT22;40178;53.042;6.406;2023-09-08T06:24:41;16.80;99.90
54264;DHT22;40178;53.042;6.406;2023-09-08T06:27:07;16.80;99.90
54264;DHT22;40178;53.042;6.406;2023-09-08T06:29:33;16.90;99.90
54264;DHT22;40178;53.042;6.406;2023-09-08T06:31:59;17.00;99.90
54264;DHT22;40178;53.042;6.406;2023-09-08T06:34:24;17.10;99.90
54264;DHT22;40178;53.042;6.406;2023-09-08T06:36:50;17.20;99.90
54264;DHT22;40178;53.042;6.406;2023-09-08T06:39:15;17.20;99.90
54264;DHT22;40178;53.042;6.406;2023-09-08T06:41:41;17.40;99.90
54264;DHT22;40178;53.042;6.406;2023-09-08T06:44:07;17.40;99.90
54264;DHT22;40178;53.042;6.406;2023-09-08T06:46:32;17.50;99.90
54264;DHT22;40178;53.042;6.406;2023-09-08T06:48:58;17.60;99.90
54264;DHT22;40178;53.042;6.406;2023-09-08T06:51:24;17.80;99.90
54264;DHT22;40178;53.042;6.406;2023-09-08T06:53:56;17.70;99.90
54264;DHT22;40178;53.042;6.406;2023-09-08T06:56:22;17.90;99.90
54264;DHT22;40178;53.042;6.406;2023-09-08T06:58:48;18.10;99.90
54264;DHT22;40178;53.042;6.406;2023-09-08T07:01:14;18.20;99.90
54264;DHT22;40178;53.042;6.406;2023-09-08T07:03:39;18.30;99.90
54264;DHT22;40178;53.042;6.406;2023-09-08T07:06:05;18.40;99.90
54264;DHT22;40178;53.042;6.406;2023-09-08T07:08:30;18.60;99.90
54264;DHT22;40178;53.042;6.406;2023-09-08T07:10:56;18.80;99.90
54264;DHT22;40178;53.042;6.406;2023-09-08T07:13:22;18.90;99.90
54264;DHT22;40178;53.042;6.406;2023-09-08T07:15:47;19.10;99.90
54264;DHT22;40178;53.042;6.406;2023-09-08T07:18:13;19.20;99.90
54264;DHT22;40178;53.042;6.406;2023-09-08T07:20:38;19.40;99.90
54264;DHT22;40178;53.042;6.406;2023-09-08T07:23:04;19.60;99.90
54264;DHT22;40178;53.042;6.406;2023-09-08T07:25:29;19.70;99.90
54264;DHT22;40178;53.042;6.406;2023-09-08T07:27:55;19.90;99.90
54264;DHT22;40178;53.042;6.406;2023-09-08T07:30:21;20.00;96.90
54264;DHT22;40178;53.042;6.406;2023-09-08T07:32:46;20.20;97.90
54264;DHT22;40178;53.042;6.406;2023-09-08T07:35:12;20.30;99.00
54264;DHT22;40178;53.042;6.406;2023-09-08T07:37:43;20.40;94.50
54264;DHT22;40178;53.042;6.406;2023-09-08T07:40:09;20.60;93.30
54264;DHT22;40178;53.042;6.406;2023-09-08T07:42:35;20.70;86.10
54264;DHT22;40178;53.042;6.406;2023-09-08T07:45:01;20.80;87.70
54264;DHT22;40178;53.042;6.406;2023-09-08T07:47:26;20.90;89.40
54264;DHT22;40178;53.042;6.406;2023-09-08T07:49:52;21.10;83.20
54264;DHT22;40178;53.042;6.406;2023-09-08T07:52:37;21.10;87.40
54264;DHT22;40178;53.042;6.406;2023-09-08T07:55:03;21.30;83.00
54264;DHT22;40178;53.042;6.406;2023-09-08T07:57:29;21.40;74.50
54264;DHT22;40178;53.042;6.406;2023-09-08T07:59:55;21.50;76.30
54264;DHT22;40178;53.042;6.406;2023-09-08T08:02:20;21.50;78.50
54264;DHT22;40178;53.042;6.406;2023-09-08T08:04:46;21.70;75.20
54264;DHT22;40178;53.042;6.406;2023-09-08T08:07:11;21.80;71.10
54264;DHT22;40178;53.042;6.406;2023-09-08T08:09:37;21.90;77.90
54264;DHT22;40178;53.042;6.406;2023-09-08T08:12:03;22.10;73.60
54264;DHT22;40178;53.042;6.406;2023-09-08T08:14:28;22.20;67.00
54264;DHT22;40178;53.042;6.406;2023-09-08T08:16:54;22.40;72.90
54264;DHT22;40178;53.042;6.406;2023-09-08T08:19:20;22.50;68.70
54264;DHT22;40178;53.042;6.406;2023-09-08T08:21:45;22.60;50.00
54264;DHT22;40178;53.042;6.406;2023-09-08T08:24:11;22.70;34.10
54264;DHT22;40178;53.042;6.406;2023-09-08T08:26:36;22.80;37.30
54264;DHT22;40178;53.042;6.406;2023-09-08T08:29:02;22.90;45.90
54264;DHT22;40178;53.042;6.406;2023-09-08T08:31:29;23.00;52.40
54264;DHT22;40178;53.042;6.406;2023-09-08T08:33:55;23.20;47.60
54264;DHT22;40178;53.042;6.406;2023-09-08T08:36:20;23.30;44.00
54264;DHT22;40178;53.042;6.406;2023-09-08T08:38:46;23.30;19.10
54264;DHT22;40178;53.042;6.406;2023-09-08T08:41:12;23.40;22.50
54264;DHT22;40178;53.042;6.406;2023-09-08T08:43:37;23.50;20.00
54264;DHT22;40178;53.042;6.406;2023-09-08T08:46:04;23.60;16.40
54264;DHT22;40178;53.042;6.406;2023-09-08T08:48:29;23.70;1.00
54264;DHT22;40178;53.042;6.406;2023-09-08T08:50:57;23.80;7.60
54264;DHT22;40178;53.042;6.406;2023-09-08T08:53:25;23.90;1.00
54264;DHT22;40178;53.042;6.406;2023-09-08T08:55:52;24.00;1.00
54264;DHT22;40178;53.042;6.406;2023-09-08T08:58:19;24.10;1.00
54264;DHT22;40178;53.042;6.406;2023-09-08T09:00:51;24.20;1.00
54264;DHT22;40178;53.042;6.406;2023-09-08T09:03:20;24.30;1.00
54264;DHT22;40178;53.042;6.406;2023-09-08T09:05:46;24.40;1.00
54264;DHT22;40178;53.042;6.406;2023-09-08T09:08:12;24.40;1.00
54264;DHT22;40178;53.042;6.406;2023-09-08T09:10:38;24.50;1.00
54264;DHT22;40178;53.042;6.406;2023-09-08T09:13:04;24.60;1.00
54264;DHT22;40178;53.042;6.406;2023-09-08T09:15:31;24.60;1.00
54264;DHT22;40178;53.042;6.406;2023-09-08T09:18:05;24.70;1.00
54264;DHT22;40178;53.042;6.406;2023-09-08T09:20:31;24.90;1.00
54264;DHT22;40178;53.042;6.406;2023-09-08T09:22:57;24.90;1.00
54264;DHT22;40178;53.042;6.406;2023-09-08T09:25:24;25.00;1.00
54264;DHT22;40178;53.042;6.406;2023-09-08T09:27:58;25.10;1.00
54264;DHT22;40178;53.042;6.406;2023-09-08T09:30:25;25.20;1.00
54264;DHT22;40178;53.042;6.406;2023-09-08T09:33:04;25.20;1.00
54264;DHT22;40178;53.042;6.406;2023-09-08T09:35:43;25.30;99.90
54264;DHT22;40178;53.042;6.406;2023-09-08T09:38:09;25.30;99.90
54264;DHT22;40178;53.042;6.406;2023-09-08T09:40:35;25.40;99.90
54264;DHT22;40178;53.042;6.406;2023-09-08T09:43:00;25.50;99.90
54264;DHT22;40178;53.042;6.406;2023-09-08T09:45:26;25.60;1.00
54264;DHT22;40178;53.042;6.406;2023-09-08T09:47:52;25.50;1.00
54264;DHT22;40178;53.042;6.406;2023-09-08T09:50:31;25.70;99.90
54264;DHT22;40178;53.042;6.406;2023-09-08T09:52:59;25.80;42.40
54264;DHT22;40178;53.042;6.406;2023-09-08T09:55:28;26.00;99.90
54264;DHT22;40178;53.042;6.406;2023-09-08T09:57:59;26.10;99.90
54264;DHT22;40178;53.042;6.406;2023-09-08T10:00:30;26.20;99.90
54264;DHT22;40178;53.042;6.406;2023-09-08T10:02:56;26.30;99.90
54264;DHT22;40178;53.042;6.406;2023-09-08T10:05:24;26.40;1.00
54264;DHT22;40178;53.042;6.406;2023-09-08T10:07:50;26.50;1.00
54264;DHT22;40178;53.042;6.406;2023-09-08T10:10:17;26.60;1.00
54264;DHT22;40178;53.042;6.406;2023-09-08T10:12:53;26.60;99.90
54264;DHT22;40178;53.042;6.406;2023-09-08T10:15:22;26.80;99.90
54264;DHT22;40178;53.042;6.406;2023-09-08T10:17:53;26.80;99.90
54264;DHT22;40178;53.042;6.406;2023-09-08T10:20:20;26.90;99.90
54264;DHT22;40178;53.042;6.406;2023-09-08T10:22:54;27.00;99.90
54264;DHT22;40178;53.042;6.406;2023-09-08T10:25:23;27.10;1.00
54264;DHT22;40178;53.042;6.406;2023-09-08T10:27:50;27.20;1.00
54264;DHT22;40178;53.042;6.406;2023-09-08T10:30:16;27.20;1.00
54264;DHT22;40178;53.042;6.406;2023-09-08T10:32:43;27.30;99.90
54264;DHT22;40178;53.042;6.406;2023-09-08T10:35:09;27.50;99.90
54264;DHT22;40178;53.042;6.406;2023-09-08T10:37:35;27.50;99.90
54264;DHT22;40178;53.042;6.406;2023-09-08T10:40:20;27.60;99.90
54264;DHT22;40178;53.042;6.406;2023-09-08T10:42:46;27.60;1.00
54264;DHT22;40178;53.042;6.406;2023-09-08T10:45:17;27.60;99.90
54264;DHT22;40178;53.042;6.406;2023-09-08T10:50:27;27.90;99.90
54264;DHT22;40178;53.042;6.406;2023-09-08T10:53:09;28.10;99.90
54264;DHT22;40178;53.042;6.406;2023-09-08T10:55:46;28.10;21.80
54264;DHT22;40178;53.042;6.406;2023-09-08T10:58:37;28.10;99.90
54264;DHT22;40178;53.042;6.406;2023-09-08T11:01:05;28.20;7.20
54264;DHT22;40178;53.042;6.406;2023-09-08T11:06:03;28.30;1.00
54264;DHT22;40178;53.042;6.406;2023-09-08T11:08:29;28.40;1.00
54264;DHT22;40178;53.042;6.406;2023-09-08T11:10:55;28.50;99.90
54264;DHT22;40178;53.042;6.406;2023-09-08T11:13:21;28.50;99.90
54264;DHT22;40178;53.042;6.406;2023-09-08T11:15:47;28.60;1.00
54264;DHT22;40178;53.042;6.406;2023-09-08T11:18:13;28.50;99.90
54264;DHT22;40178;53.042;6.406;2023-09-08T11:20:38;28.70;99.90
54264;DHT22;40178;53.042;6.406;2023-09-08T11:23:04;28.80;1.00
54264;DHT22;40178;53.042;6.406;2023-09-08T11:25:32;28.80;1.00
54264;DHT22;40178;53.042;6.406;2023-09-08T11:28:00;28.80;99.90
54264;DHT22;40178;53.042;6.406;2023-09-08T11:30:26;28.90;19.00
54264;DHT22;40178;53.042;6.406;2023-09-08T11:32:52;29.00;99.90
54264;DHT22;40178;53.042;6.406;2023-09-08T11:35:18;29.20;99.90
54264;DHT22;40178;53.042;6.406;2023-09-08T11:37:46;29.30;1.00
54264;DHT22;40178;53.042;6.406;2023-09-08T11:40:12;29.30;65.20
54264;DHT22;40178;53.042;6.406;2023-09-08T11:42:43;29.30;99.90
54264;DHT22;40178;53.042;6.406;2023-09-08T11:47:42;29.40;1.00
54264;DHT22;40178;53.042;6.406;2023-09-08T11:50:11;29.40;99.90
54264;DHT22;40178;53.042;6.406;2023-09-08T11:52:44;29.50;1.00
54264;DHT22;40178;53.042;6.406;2023-09-08T11:55:11;29.40;1.00
54264;DHT22;40178;53.042;6.406;2023-09-08T11:57:39;29.50;99.90
54264;DHT22;40178;53.042;6.406;2023-09-08T12:00:05;29.70;1.00
54264;DHT22;40178;53.042;6.406;2023-09-08T12:02:36;29.80;99.90
54264;DHT22;40178;53.042;6.406;2023-09-08T12:05:05;29.70;99.90
54264;DHT22;40178;53.042;6.406;2023-09-08T12:07:37;29.70;99.90
54264;DHT22;40178;53.042;6.406;2023-09-08T12:10:11;29.80;11.40
54264;DHT22;40178;53.042;6.406;2023-09-08T12:12:44;29.60;11.60
54264;DHT22;40178;53.042;6.406;2023-09-08T12:15:10;29.70;1.00
54264;DHT22;40178;53.042;6.406;2023-09-08T12:17:56;29.80;1.00
54264;DHT22;40178;53.042;6.406;2023-09-08T12:20:21;29.80;1.00
54264;DHT22;40178;53.042;6.406;2023-09-08T12:22:48;29.80;1.00
54264;DHT22;40178;53.042;6.406;2023-09-08T12:25:15;29.80;1.00
54264;DHT22;40178;53.042;6.406;2023-09-08T12:27:42;29.80;1.00
54264;DHT22;40178;53.042;6.406;2023-09-08T12:30:08;29.80;99.90
54264;DHT22;40178;53.042;6.406;2023-09-08T12:32:35;29.80;99.90
54264;DHT22;40178;53.042;6.406;2023-09-08T12:35:03;29.80;99.90
54264;DHT22;40178;53.042;6.406;2023-09-08T12:37:30;29.90;99.90
54264;DHT22;40178;53.042;6.406;2023-09-08T12:39:57;29.90;1.00
54264;DHT22;40178;53.042;6.406;2023-09-08T12:42:22;29.90;1.00
54264;DHT22;40178;53.042;6.406;2023-09-08T12:44:54;29.90;99.90
54264;DHT22;40178;53.042;6.406;2023-09-08T12:47:19;29.90;1.00
54264;DHT22;40178;53.042;6.406;2023-09-08T12:49:45;29.90;1.00
54264;DHT22;40178;53.042;6.406;2023-09-08T12:52:11;29.90;1.00
54264;DHT22;40178;53.042;6.406;2023-09-08T12:54:36;29.90;99.90
54264;DHT22;40178;53.042;6.406;2023-09-08T12:57:02;29.80;99.90
54264;DHT22;40178;53.042;6.406;2023-09-08T12:59:28;29.90;1.00
54264;DHT22;40178;53.042;6.406;2023-09-08T13:01:54;29.90;1.00
54264;DHT22;40178;53.042;6.406;2023-09-08T13:04:20;29.90;99.90
54264;DHT22;40178;53.042;6.406;2023-09-08T13:06:47;29.80;99.90
54264;DHT22;40178;53.042;6.406;2023-09-08T13:09:13;29.80;99.90
54264;DHT22;40178;53.042;6.406;2023-09-08T13:11:39;29.80;99.90
54264;DHT22;40178;53.042;6.406;2023-09-08T13:14:04;29.80;99.90
54264;DHT22;40178;53.042;6.406;2023-09-08T13:16:30;29.80;99.90
54264;DHT22;40178;53.042;6.406;2023-09-08T13:18:55;29.80;99.90
54264;DHT22;40178;53.042;6.406;2023-09-08T13:21:21;29.80;99.90
54264;DHT22;40178;53.042;6.406;2023-09-08T13:23:47;29.90;99.90
54264;DHT22;40178;53.042;6.406;2023-09-08T13:26:12;29.90;99.90
54264;DHT22;40178;53.042;6.406;2023-09-08T13:28:38;30.00;99.90
54264;DHT22;40178;53.042;6.406;2023-09-08T13:31:03;30.00;99.90
54264;DHT22;40178;53.042;6.406;2023-09-08T13:33:29;30.20;1.00
54264;DHT22;40178;53.042;6.406;2023-09-08T13:35:55;30.30;1.00
54264;DHT22;40178;53.042;6.406;2023-09-08T13:38:21;30.40;1.00
54264;DHT22;40178;53.042;6.406;2023-09-08T13:40:47;30.50;99.90
54264;DHT22;40178;53.042;6.406;2023-09-08T13:43:12;30.50;99.90
54264;DHT22;40178;53.042;6.406;2023-09-08T13:45:38;30.40;99.90
54264;DHT22;40178;53.042;6.406;2023-09-08T13:48:04;30.50;99.90
54264;DHT22;40178;53.042;6.406;2023-09-08T13:50:31;30.60;99.90
54264;DHT22;40178;53.042;6.406;2023-09-08T13:52:57;30.60;99.90
54264;DHT22;40178;53.042;6.406;2023-09-08T13:55:22;30.70;99.90
54264;DHT22;40178;53.042;6.406;2023-09-08T13:57:50;30.70;99.90
54264;DHT22;40178;53.042;6.406;2023-09-08T14:00:19;30.60;99.90
54264;DHT22;40178;53.042;6.406;2023-09-08T14:02:44;30.60;99.90
54264;DHT22;40178;53.042;6.406;2023-09-08T14:05:10;30.80;99.90
54264;DHT22;40178;53.042;6.406;2023-09-08T14:07:36;30.90;99.90
54264;DHT22;40178;53.042;6.406;2023-09-08T14:10:02;30.90;99.90
54264;DHT22;40178;53.042;6.406;2023-09-08T14:12:33;31.10;99.90
54264;DHT22;40178;53.042;6.406;2023-09-08T14:14:58;31.10;99.90
54264;DHT22;40178;53.042;6.406;2023-09-08T14:17:24;31.20;99.90
54264;DHT22;40178;53.042;6.406;2023-09-08T14:19:49;31.30;99.90
54264;DHT22;40178;53.042;6.406;2023-09-08T14:22:15;31.20;99.90
54264;DHT22;40178;53.042;6.406;2023-09-08T14:24:40;31.20;99.90
54264;DHT22;40178;53.042;6.406;2023-09-08T14:27:06;31.40;99.90
54264;DHT22;40178;53.042;6.406;2023-09-08T14:29:33;31.50;99.90
54264;DHT22;40178;53.042;6.406;2023-09-08T14:31:59;31.60;99.90
54264;DHT22;40178;53.042;6.406;2023-09-08T14:34:25;31.70;99.90
54264;DHT22;40178;53.042;6.406;2023-09-08T14:36:50;31.70;99.90
54264;DHT22;40178;53.042;6.406;2023-09-08T14:39:16;31.70;99.90
54264;DHT22;40178;53.042;6.406;2023-09-08T14:41:44;31.70;99.90
54264;DHT22;40178;53.042;6.406;2023-09-08T14:44:10;31.80;99.90
54264;DHT22;40178;53.042;6.406;2023-09-08T14:46:36;32.10;99.90
54264;DHT22;40178;53.042;6.406;2023-09-08T14:49:01;32.30;99.90
54264;DHT22;40178;53.042;6.406;2023-09-08T14:51:28;32.40;99.90
54264;DHT22;40178;53.042;6.406;2023-09-08T14:53:53;32.60;99.90
54264;DHT22;40178;53.042;6.406;2023-09-08T14:56:19;32.70;99.90
54264;DHT22;40178;53.042;6.406;2023-09-08T14:58:45;32.70;99.90
54264;DHT22;40178;53.042;6.406;2023-09-08T15:01:10;33.00;99.90
54264;DHT22;40178;53.042;6.406;2023-09-08T15:03:39;32.90;99.90
54264;DHT22;40178;53.042;6.406;2023-09-08T15:06:05;32.90;99.90
54264;DHT22;40178;53.042;6.406;2023-09-08T15:08:30;32.90;99.90
54264;DHT22;40178;53.042;6.406;2023-09-08T15:10:56;32.80;99.60
54264;DHT22;40178;53.042;6.406;2023-09-08T15:13:21;32.90;98.00
54264;DHT22;40178;53.042;6.406;2023-09-08T15:15:47;32.50;89.80
54264;DHT22;40178;53.042;6.406;2023-09-08T15:18:13;32.00;80.10
54264;DHT22;40178;53.042;6.406;2023-09-08T15:20:39;31.60;82.30
54264;DHT22;40178;53.042;6.406;2023-09-08T15:23:06;31.30;89.90
54264;DHT22;40178;53.042;6.406;2023-09-08T15:25:32;31.00;99.90
54264;DHT22;40178;53.042;6.406;2023-09-08T15:27:57;30.80;99.90
54264;DHT22;40178;53.042;6.406;2023-09-08T15:30:23;30.90;99.90
54264;DHT22;40178;53.042;6.406;2023-09-08T15:32:48;31.20;99.90
54264;DHT22;40178;53.042;6.406;2023-09-08T15:35:14;31.80;99.90
54264;DHT22;40178;53.042;6.406;2023-09-08T15:37:39;32.30;99.90
54264;DHT22;40178;53.042;6.406;2023-09-08T15:40:06;32.90;99.90